createdAt,value
2022-09-29T00:00:26.571Z,99053.4296875
2022-09-29T00:01:26.281Z,99055.4375
2022-09-29T00:02:26.135Z,99058.2421875
2022-09-29T00:03:26.192Z,99056.3359375
2022-09-29T00:04:26.132Z,99057.625
2022-09-29T00:05:26.578Z,99058.30859375
2022-09-29T00:06:26.212Z,99058.12890625
2022-09-29T00:07:26.127Z,99055.9140625
2022-09-29T00:08:26.266Z,99056.28125
2022-09-29T00:09:32.211Z,99059.5234375
2022-09-29T00:10:26.504Z,99060.4140625
2022-09-29T00:11:26.192Z,99061.1171875
2022-09-29T00:12:26.136Z,99059.8671875
2022-09-29T00:13:26.146Z,99058.9609375
2022-09-29T00:14:26.242Z,99058.04296875
2022-09-29T00:15:26.506Z,99059.4921875
2022-09-29T00:16:26.235Z,99055.96484375
2022-09-29T00:17:26.149Z,99058.9609375
2022-09-29T00:18:26.241Z,99057.16796875
2022-09-29T00:19:26.294Z,99057.64453125
2022-09-29T00:20:32.198Z,99056.17578125
2022-09-29T00:21:26.348Z,99058.03515625
2022-09-29T00:22:26.347Z,99056.73046875
2022-09-29T00:23:26.123Z,99057.65234375
2022-09-29T00:24:26.570Z,99056.40234375
2022-09-29T00:25:26.606Z,99059.0078125
2022-09-29T00:26:26.235Z,99056.3671875
2022-09-29T00:27:26.256Z,99058.609375
2022-09-29T00:28:26.290Z,99061.140625
2022-09-29T00:29:26.213Z,99060.640625
2022-09-29T00:30:26.508Z,99061.7421875
2022-09-29T00:31:29.198Z,99063.0703125
2022-09-29T00:32:26.366Z,99064.37890625
2022-09-29T00:33:26.241Z,99066.8125
2022-09-29T00:34:26.136Z,99066.6484375
2022-09-29T00:35:26.576Z,99067.85546875
2022-09-29T00:36:26.228Z,99069.1640625
2022-09-29T00:37:26.245Z,99063.8828125
2022-09-29T00:38:26.115Z,99060.89453125
2022-09-29T00:39:26.582Z,99060.73828125
2022-09-29T00:40:26.533Z,99061.0078125
2022-09-29T00:41:26.255Z,99061.70703125
2022-09-29T00:42:29.242Z,99064.80859375
2022-09-29T00:43:26.191Z,99064.0546875
2022-09-29T00:44:26.248Z,99062.33203125
2022-09-29T00:45:26.558Z,99065.16796875
2022-09-29T00:46:26.343Z,99064.6484375
2022-09-29T00:47:26.267Z,99062.87109375
2022-09-29T00:48:26.158Z,99061.53515625
2022-09-29T00:49:26.134Z,99063.22265625
2022-09-29T00:50:26.579Z,99058.3984375
2022-09-29T00:51:26.211Z,99056.78125
2022-09-29T00:52:26.194Z,99063.60546875
2022-09-29T00:53:29.239Z,99062.73046875
2022-09-29T00:54:26.691Z,99063.3984375
2022-09-29T00:55:26.509Z,99065.04296875
2022-09-29T00:56:26.206Z,99061.1953125
2022-09-29T00:57:26.138Z,99060.08984375
2022-09-29T00:58:26.137Z,99059.0078125
2022-09-29T00:59:26.136Z,99060.1953125
2022-09-29T01:00:26.632Z,99058.0703125
2022-09-29T01:01:26.383Z,99054.765625
2022-09-29T01:02:26.196Z,99058.37109375
2022-09-29T01:03:26.133Z,99055.03125
2022-09-29T01:04:29.231Z,99052.984375
2022-09-29T01:05:26.495Z,99051.6640625
2022-09-29T01:06:26.306Z,99050.56640625
2022-09-29T01:07:26.232Z,99048.4296875
2022-09-29T01:08:26.229Z,99050.375
2022-09-29T01:09:26.500Z,99050.5234375
2022-09-29T01:10:26.502Z,99048.953125
2022-09-29T01:11:26.115Z,99049.6640625
2022-09-29T01:12:26.232Z,99046
2022-09-29T01:13:26.318Z,99046.6796875
2022-09-29T01:14:26.140Z,99042.5703125
2022-09-29T01:15:32.189Z,99045.37109375
2022-09-29T01:16:26.316Z,99041.01171875
2022-09-29T01:17:26.138Z,99041.82421875
2022-09-29T01:18:26.226Z,99041.171875
2022-09-29T01:19:26.195Z,99039.4921875
2022-09-29T01:20:26.571Z,99038.05078125
2022-09-29T01:21:26.113Z,99037.52734375
2022-09-29T01:22:26.142Z,99033.57421875
2022-09-29T01:23:26.230Z,99034.2578125
2022-09-29T01:24:26.577Z,99034.98046875
2022-09-29T01:25:26.501Z,99037.58203125
2022-09-29T01:26:29.314Z,99040.671875
2022-09-29T01:27:26.323Z,99039.4765625
2022-09-29T01:28:26.216Z,99040.70703125
2022-09-29T01:29:26.148Z,99041.50390625
2022-09-29T01:30:26.585Z,99040.26953125
2022-09-29T01:31:26.370Z,99040.6015625
2022-09-29T01:32:26.243Z,99046.125
2022-09-29T01:33:26.216Z,99042.36328125
2022-09-29T01:34:26.240Z,99043.859375
2022-09-29T01:35:26.499Z,99043.98828125
2022-09-29T01:36:26.253Z,99043.765625
2022-09-29T01:37:29.264Z,99044.62890625
2022-09-29T01:38:26.244Z,99042.4296875
2022-09-29T01:39:26.577Z,99046.06640625
2022-09-29T01:40:26.516Z,99042.8359375
2022-09-29T01:41:26.188Z,99042.62890625
2022-09-29T01:42:26.140Z,99044.22265625
2022-09-29T01:43:26.135Z,99043.703125
2022-09-29T01:44:26.116Z,99049.30859375
2022-09-29T01:45:26.708Z,99049.68359375
2022-09-29T01:46:26.301Z,99049.94921875
2022-09-29T01:47:26.252Z,99046.6796875
2022-09-29T01:48:29.137Z,99046.9609375
2022-09-29T01:49:26.287Z,99051.0703125
2022-09-29T01:50:26.573Z,99048.81640625
2022-09-29T01:51:26.203Z,99051.69921875
2022-09-29T01:52:26.148Z,99051.36328125
2022-09-29T01:53:26.133Z,99052.86328125
2022-09-29T01:54:26.710Z,99056.76953125
2022-09-29T01:55:26.577Z,99051.859375
2022-09-29T01:56:26.313Z,99054.46484375
2022-09-29T01:57:26.219Z,99055.63671875
2022-09-29T01:58:26.288Z,99057.828125
2022-09-29T01:59:29.244Z,99056.01171875
2022-09-29T02:00:26.302Z,99060.12109375
2022-09-29T02:01:26.287Z,99059.81640625
2022-09-29T02:02:26.162Z,99059.69921875
2022-09-29T02:03:26.110Z,99060.8046875
2022-09-29T02:04:26.120Z,99060.9296875
2022-09-29T02:05:26.512Z,99059.72265625
2022-09-29T02:06:26.129Z,99061.83984375
2022-09-29T02:07:26.115Z,99056.88671875
2022-09-29T02:08:26.124Z,99063.91796875
2022-09-29T02:09:26.580Z,99059.73046875
2022-09-29T02:10:32.189Z,99060.92578125
2022-09-29T02:11:26.292Z,99058.5546875
2022-09-29T02:12:26.311Z,99059.90234375
2022-09-29T02:13:26.172Z,99059.47265625
2022-09-29T02:14:26.241Z,99059.9140625
2022-09-29T02:15:26.505Z,99063.546875
2022-09-29T02:16:26.385Z,99059.68359375
2022-09-29T02:17:26.191Z,99066.3984375
2022-09-29T02:18:26.153Z,99066.67578125
2022-09-29T02:19:26.215Z,99064.2109375
2022-09-29T02:20:26.483Z,99061.921875
2022-09-29T02:21:29.127Z,99062.03125
2022-09-29T02:22:26.302Z,99061.984375
2022-09-29T02:23:26.182Z,99060.2265625
2022-09-29T02:24:26.584Z,99062.09765625
2022-09-29T02:25:26.321Z,99064.39453125
2022-09-29T02:26:26.317Z,99063.20703125
2022-09-29T02:27:26.244Z,99063.75390625
2022-09-29T02:28:26.249Z,99064.27734375
2022-09-29T02:29:26.256Z,99065.40625
2022-09-29T02:30:26.247Z,99065.08984375
2022-09-29T02:31:26.347Z,99063.3125
2022-09-29T02:32:29.163Z,99069.0703125
2022-09-29T02:33:26.306Z,99067.18359375
2022-09-29T02:34:26.253Z,99069.125
2022-09-29T02:35:26.571Z,99069.22265625
2022-09-29T02:36:26.197Z,99072.34375
2022-09-29T02:37:26.218Z,99071.0859375
2022-09-29T02:38:26.205Z,99073.73046875
2022-09-29T02:39:26.572Z,99070.2890625
2022-09-29T02:40:26.585Z,99071.84765625
2022-09-29T02:41:26.195Z,99073.0234375
2022-09-29T02:42:26.226Z,99066.984375
2022-09-29T02:43:29.170Z,99070.48828125
2022-09-29T02:44:26.255Z,99067.46484375
2022-09-29T02:45:26.185Z,99068.3828125
2022-09-29T02:46:26.176Z,99068.8359375
2022-09-29T02:47:26.136Z,99067.78125
2022-09-29T02:48:26.218Z,99068.6875
2022-09-29T02:49:26.217Z,99068.62890625
2022-09-29T02:50:26.575Z,99069.50390625
2022-09-29T02:51:26.295Z,99071.3203125
2022-09-29T02:52:26.238Z,99073.0390625
2022-09-29T02:53:26.190Z,99071.80859375
2022-09-29T02:54:32.219Z,99071.421875
2022-09-29T02:55:26.499Z,99077.27734375
2022-09-29T02:56:26.220Z,99078.13671875
2022-09-29T02:57:26.111Z,99076.99609375
2022-09-29T02:58:26.207Z,99077.87890625
2022-09-29T02:59:26.274Z,99079.84765625
2022-09-29T03:00:26.498Z,99086.19140625
2022-09-29T03:01:26.199Z,99084.50390625
2022-09-29T03:02:26.248Z,99086.40234375
2022-09-29T03:03:26.294Z,99085.76171875
2022-09-29T03:04:26.139Z,99086.25
2022-09-29T03:05:32.184Z,99092.2890625
2022-09-29T03:06:26.257Z,99087.54296875
2022-09-29T03:07:26.213Z,99088.09765625
2022-09-29T03:08:26.230Z,99089.77734375
2022-09-29T03:09:26.577Z,99092.27734375
2022-09-29T03:10:30.063Z,99089.984375
2022-09-29T03:11:26.217Z,99092.1015625
2022-09-29T03:12:26.143Z,99087.81640625
2022-09-29T03:13:26.162Z,99088.98828125
2022-09-29T03:14:26.226Z,99089.53515625
2022-09-29T03:15:26.597Z,99083.37890625
2022-09-29T03:16:29.204Z,99083.390625
2022-09-29T03:17:26.299Z,99084.51953125
2022-09-29T03:18:26.116Z,99085.671875
2022-09-29T03:19:26.138Z,99082.94921875
2022-09-29T03:20:26.585Z,99086.66015625
2022-09-29T03:21:26.205Z,99087.43359375
2022-09-29T03:22:26.138Z,99084.69921875
2022-09-29T03:23:26.133Z,99082.5703125
2022-09-29T03:24:26.502Z,99084.53125
2022-09-29T03:25:26.503Z,99085.75390625
2022-09-29T03:26:26.332Z,99086.3046875
2022-09-29T03:27:29.265Z,99090.67578125
2022-09-29T03:28:26.184Z,99090.78125
2022-09-29T03:29:26.131Z,99092.44921875
2022-09-29T03:30:26.173Z,99092.1015625
2022-09-29T03:31:26.652Z,99092.09375
2022-09-29T03:32:26.316Z,99089.5859375
2022-09-29T03:33:26.122Z,99091.171875
2022-09-29T03:34:26.117Z,99092.234375
2022-09-29T03:35:26.572Z,99090.609375
2022-09-29T03:36:26.186Z,99091.05078125
2022-09-29T03:37:26.116Z,99092.87890625
2022-09-29T03:38:29.232Z,99093.8046875
2022-09-29T03:39:26.506Z,99095.58203125
2022-09-29T03:40:26.546Z,99091.359375
2022-09-29T03:41:26.356Z,99091.40234375
2022-09-29T03:42:26.357Z,99092.32421875
2022-09-29T03:43:26.345Z,99089.953125
2022-09-29T03:44:26.208Z,99092.34375
2022-09-29T03:45:26.682Z,99090.44921875
2022-09-29T03:46:26.348Z,99089.69140625
2022-09-29T03:47:26.298Z,99089.484375
2022-09-29T03:48:26.249Z,99091.40234375
2022-09-29T03:49:29.199Z,99092.23046875
2022-09-29T03:50:26.500Z,99089.0390625
2022-09-29T03:51:26.266Z,99090.31640625
2022-09-29T03:52:26.253Z,99089.80859375
2022-09-29T03:53:26.222Z,99091.7109375
2022-09-29T03:54:26.592Z,99090.82421875
2022-09-29T03:55:26.496Z,99097.64453125
2022-09-29T03:56:26.164Z,99093.59375
2022-09-29T03:57:26.246Z,99094.0859375
2022-09-29T03:58:26.133Z,99095.375
2022-09-29T03:59:26.130Z,99093.15234375
2022-09-29T04:00:32.249Z,99091.2734375
2022-09-29T04:01:26.397Z,99090.96875
2022-09-29T04:02:26.371Z,99094.328125
2022-09-29T04:03:26.174Z,99092.38671875
2022-09-29T04:04:26.124Z,99090.76953125
2022-09-29T04:05:26.581Z,99090.70703125
2022-09-29T04:06:26.260Z,99092.3515625
2022-09-29T04:07:26.187Z,99093
2022-09-29T04:08:26.226Z,99094.98828125
2022-09-29T04:09:26.493Z,99097.01953125
2022-09-29T04:10:26.500Z,99096.05078125
2022-09-29T04:11:29.346Z,99099.21875
2022-09-29T04:12:26.335Z,99101.8125
2022-09-29T04:13:26.217Z,99099.23828125
2022-09-29T04:14:26.262Z,99100.78125
2022-09-29T04:15:26.515Z,99098.859375
2022-09-29T04:16:26.265Z,99100.28125
2022-09-29T04:17:26.125Z,99099.11328125
2022-09-29T04:18:26.113Z,99102.36328125
2022-09-29T04:19:26.145Z,99101.53125
2022-09-29T04:20:26.571Z,99103.46484375
2022-09-29T04:21:26.212Z,99103.5234375
2022-09-29T04:22:29.101Z,99106.2109375
2022-09-29T04:23:26.328Z,99105.54296875
2022-09-29T04:24:26.306Z,99103.64453125
2022-09-29T04:25:26.500Z,99100.08203125
2022-09-29T04:26:26.351Z,99102.62109375
2022-09-29T04:27:26.340Z,99106.26953125
2022-09-29T04:28:26.143Z,99108.796875
2022-09-29T04:29:26.126Z,99106.375
2022-09-29T04:30:26.567Z,99111.05859375
2022-09-29T04:31:26.353Z,99110.734375
2022-09-29T04:32:26.338Z,99109.80078125
2022-09-29T04:33:29.265Z,99109.45703125
2022-09-29T04:34:26.340Z,99108.41796875
2022-09-29T04:35:26.510Z,99111.88671875
2022-09-29T04:36:26.337Z,99111.9609375
2022-09-29T04:37:26.210Z,99114.8828125
2022-09-29T04:38:26.115Z,99115.40234375
2022-09-29T04:39:26.510Z,99113.75390625
2022-09-29T04:40:26.812Z,99118.1328125
2022-09-29T04:41:26.183Z,99112.71484375
2022-09-29T04:42:26.140Z,99116.53125
2022-09-29T04:43:26.206Z,99119.07421875
2022-09-29T04:44:29.124Z,99118.99609375
2022-09-29T04:45:26.341Z,99113.80078125
2022-09-29T04:46:26.229Z,99115.04296875
2022-09-29T04:47:26.258Z,99115.3203125
2022-09-29T04:48:26.341Z,99114.17578125
2022-09-29T04:49:26.315Z,99116.734375
2022-09-29T04:50:26.512Z,99112.4609375
2022-09-29T04:51:26.213Z,99113.29296875
2022-09-29T04:52:26.203Z,99111.55859375
2022-09-29T04:53:26.126Z,99110.23828125
2022-09-29T04:54:26.282Z,99115.58203125
2022-09-29T04:55:29.268Z,99116.63671875
2022-09-29T04:56:26.312Z,99116.1484375
2022-09-29T04:57:26.350Z,99113.53515625
2022-09-29T04:58:26.281Z,99113.859375
2022-09-29T04:59:26.216Z,99113.47265625
2022-09-29T05:00:26.581Z,99114.75
2022-09-29T05:01:26.214Z,99112.6875
2022-09-29T05:02:26.185Z,99114.9296875
2022-09-29T05:03:26.134Z,99113.015625
2022-09-29T05:04:26.252Z,99114.57421875
2022-09-29T05:05:26.506Z,99117.2734375
2022-09-29T05:06:29.163Z,99115.4765625
2022-09-29T05:07:26.217Z,99112.359375
2022-09-29T05:08:26.237Z,99118.43359375
2022-09-29T05:09:29.921Z,99116.6640625
2022-09-29T05:10:26.502Z,99115.98046875
2022-09-29T05:11:26.221Z,99118.515625
2022-09-29T05:12:26.218Z,99119.765625
2022-09-29T05:13:26.246Z,99120.03515625
2022-09-29T05:14:26.327Z,99117.78125
2022-09-29T05:15:26.509Z,99122.1875
2022-09-29T05:16:26.376Z,99121.6953125
2022-09-29T05:17:29.158Z,99121.25
2022-09-29T05:18:26.292Z,99123.31640625
2022-09-29T05:19:26.276Z,99125.64453125
2022-09-29T05:20:30.696Z,99121.296875
2022-09-29T05:21:28.634Z,99122.40625
2022-09-29T05:22:26.329Z,99124.140625
2022-09-29T05:23:26.121Z,99124.0234375
2022-09-29T05:24:26.582Z,99122.0859375
2022-09-29T05:25:26.357Z,99124.84375
2022-09-29T05:26:26.269Z,99125.40625
2022-09-29T05:27:26.133Z,99124.3984375
2022-09-29T05:28:29.132Z,99125.84375
2022-09-29T05:29:26.300Z,99128.55859375
2022-09-29T05:30:26.621Z,99129.15234375
2022-09-29T05:31:26.311Z,99127.80078125
2022-09-29T05:32:26.251Z,99130.4296875
2022-09-29T05:33:26.228Z,99127
2022-09-29T05:34:26.121Z,99129.05078125
2022-09-29T05:35:26.577Z,99127.3125
2022-09-29T05:36:26.212Z,99130.78515625
2022-09-29T05:37:26.252Z,99129.8671875
2022-09-29T05:38:26.275Z,99130.98046875
2022-09-29T05:39:32.204Z,99129.984375
2022-09-29T05:40:26.764Z,99133.47265625
2022-09-29T05:41:26.193Z,99133.33984375
2022-09-29T05:42:26.142Z,99133.578125
2022-09-29T05:43:26.128Z,99133.11328125
2022-09-29T05:44:26.132Z,99132.9296875
2022-09-29T05:45:26.549Z,99136.40234375
2022-09-29T05:46:26.143Z,99135.42578125
2022-09-29T05:47:26.244Z,99137.0390625
2022-09-29T05:48:26.212Z,99137.87109375
2022-09-29T05:49:26.228Z,99140.84765625
2022-09-29T05:50:32.201Z,99140.46484375
2022-09-29T05:51:26.309Z,99138.53515625
2022-09-29T05:52:26.302Z,99139.47265625
2022-09-29T05:53:26.169Z,99140.16015625
2022-09-29T05:54:26.578Z,99143.93359375
2022-09-29T05:55:26.306Z,99145.00390625
2022-09-29T05:56:26.177Z,99143.73046875
2022-09-29T05:57:26.144Z,99145.6875
2022-09-29T05:58:26.256Z,99148.80078125
2022-09-29T05:59:26.287Z,99148.8203125
2022-09-29T06:00:26.574Z,99151.09375
2022-09-29T06:01:29.217Z,99145.90625
2022-09-29T06:02:26.361Z,99146.796875
2022-09-29T06:03:26.120Z,99148.1953125
2022-09-29T06:04:26.099Z,99146.5859375
2022-09-29T06:05:26.573Z,99148.72265625
2022-09-29T06:06:26.202Z,99149.39453125
2022-09-29T06:07:26.131Z,99151.3828125
2022-09-29T06:08:26.180Z,99153.4765625
2022-09-29T06:09:26.139Z,99151.8359375
2022-09-29T06:10:26.571Z,99149.1875
2022-09-29T06:11:26.220Z,99147.01171875
2022-09-29T06:12:29.238Z,99151.38671875
2022-09-29T06:13:26.208Z,99151.06640625
2022-09-29T06:14:26.218Z,99151.1484375
2022-09-29T06:15:26.329Z,99149.6484375
2022-09-29T06:16:26.485Z,99149.171875
2022-09-29T06:17:26.334Z,99154.80859375
2022-09-29T06:18:26.174Z,99151.24609375
2022-09-29T06:19:26.259Z,99155.8046875
2022-09-29T06:20:26.497Z,99154.35546875
2022-09-29T06:21:26.324Z,99152.01171875
2022-09-29T06:22:26.262Z,99150.1171875
2022-09-29T06:23:29.243Z,99149.859375
2022-09-29T06:24:26.499Z,99149.0390625
2022-09-29T06:25:26.710Z,99150.5546875
2022-09-29T06:26:26.318Z,99151.3125
2022-09-29T06:27:26.251Z,99149.0546875
2022-09-29T06:28:26.223Z,99152.375
2022-09-29T06:29:26.241Z,99153.14453125
2022-09-29T06:30:26.575Z,99152.25390625
2022-09-29T06:31:26.318Z,99155.3359375
2022-09-29T06:32:26.139Z,99160.94140625
2022-09-29T06:33:26.164Z,99157.44921875
2022-09-29T06:34:29.139Z,99157.53125
2022-09-29T06:35:26.509Z,99162.9453125
2022-09-29T06:36:26.198Z,99163.11328125
2022-09-29T06:37:26.133Z,99164.109375
2022-09-29T06:38:26.128Z,99159.640625
2022-09-29T06:39:26.568Z,99164.6171875
2022-09-29T06:40:26.608Z,99162.33984375
2022-09-29T06:41:26.209Z,99162.9296875
2022-09-29T06:42:26.300Z,99159.96484375
2022-09-29T06:43:26.276Z,99159.84375
2022-09-29T06:44:26.264Z,99164.6171875
2022-09-29T06:45:32.261Z,99167.375
2022-09-29T06:46:26.214Z,99164.12890625
2022-09-29T06:47:26.241Z,99164.98828125
2022-09-29T06:48:26.216Z,99163.59765625
2022-09-29T06:49:26.224Z,99172.96875
2022-09-29T06:50:26.846Z,99171.734375
2022-09-29T06:51:34.533Z,99172.1015625
2022-09-29T06:52:29.859Z,99172.87109375
2022-09-29T06:53:33.864Z,99172.21875
2022-09-29T06:54:26.583Z,99173.1015625
2022-09-29T06:55:26.223Z,99176.2265625
2022-09-29T06:56:29.147Z,99180.01171875
2022-09-29T06:57:26.205Z,99179.25390625
2022-09-29T06:58:26.139Z,99180.47265625
2022-09-29T06:59:26.128Z,99181.80078125
2022-09-29T07:00:26.574Z,99183.66015625
2022-09-29T07:01:26.362Z,99181.1875
2022-09-29T07:02:26.288Z,99183.3828125
2022-09-29T07:03:26.128Z,99183.015625
2022-09-29T07:04:26.217Z,99179.375
2022-09-29T07:05:26.572Z,99184.6171875
2022-09-29T07:06:26.277Z,99178.9453125
2022-09-29T07:07:29.292Z,99180.28125
2022-09-29T07:08:26.361Z,99185.14453125
2022-09-29T07:09:26.246Z,99182.484375
2022-09-29T07:10:26.778Z,99184.40234375
2022-09-29T07:11:26.185Z,99185.6953125
2022-09-29T07:12:26.137Z,99186.77734375
2022-09-29T07:13:26.140Z,99186.265625
2022-09-29T07:14:26.109Z,99185.41796875
2022-09-29T07:15:26.584Z,99184.76171875
2022-09-29T07:16:26.403Z,99181.69140625
2022-09-29T07:17:26.249Z,99183.51953125
2022-09-29T07:18:29.290Z,99184.70703125
2022-09-29T07:19:26.304Z,99183.53515625
2022-09-29T07:20:26.502Z,99186.31640625
2022-09-29T07:21:26.225Z,99186.3046875
2022-09-29T07:22:26.216Z,99188.1484375
2022-09-29T07:23:26.212Z,99186.609375
2022-09-29T07:24:26.499Z,99184.30859375
2022-09-29T07:25:50.029Z,99179.7109375
2022-09-29T07:26:26.286Z,99177.08984375
2022-09-29T07:27:26.273Z,99177.15234375
2022-09-29T07:28:26.202Z,99178.01171875
2022-09-29T07:29:29.254Z,99175.125
2022-09-29T07:30:36.025Z,99175.4921875
2022-09-29T07:31:26.639Z,99179.9296875
2022-09-29T07:32:28.514Z,99179.50390625
2022-09-29T07:33:35.525Z,99177.80859375
2022-09-29T07:34:26.120Z,99177.43359375
2022-09-29T07:35:26.509Z,99174.48046875
2022-09-29T07:36:26.116Z,99180.75390625
2022-09-29T07:37:26.128Z,99175.06640625
2022-09-29T07:38:26.159Z,99177.59765625
2022-09-29T07:39:26.576Z,99178.16796875
2022-09-29T07:40:32.273Z,99184.15234375
2022-09-29T07:41:26.280Z,99185.57421875
2022-09-29T07:42:26.146Z,99188.63671875
2022-09-29T07:43:26.126Z,99189.58203125
2022-09-29T07:44:26.269Z,99188.94140625
2022-09-29T07:45:26.638Z,99188.859375
2022-09-29T07:46:26.207Z,99190.171875
2022-09-29T07:47:26.254Z,99192.00390625
2022-09-29T07:48:31.175Z,99191.19921875
2022-09-29T07:49:26.191Z,99194.90234375
2022-09-29T07:50:26.230Z,99191.09375
2022-09-29T07:51:29.242Z,99200.8984375
2022-09-29T07:52:26.321Z,99202.515625
2022-09-29T07:53:26.144Z,99201.578125
2022-09-29T07:54:29.558Z,99199.796875
2022-09-29T07:55:26.107Z,99202.34765625
2022-09-29T07:56:26.135Z,99201.12890625
2022-09-29T07:57:26.230Z,99198.8671875
2022-09-29T07:58:26.138Z,99202.625
2022-09-29T07:59:26.563Z,99202.53125
2022-09-29T08:00:26.304Z,99204.40625
2022-09-29T08:01:26.262Z,99204.09375
2022-09-29T08:02:29.196Z,99206.7265625
2022-09-29T08:03:26.354Z,99207.9296875
2022-09-29T08:04:26.490Z,99205.8125
2022-09-29T08:05:26.218Z,99213.25
2022-09-29T08:06:26.608Z,99208.94140625
2022-09-29T08:07:26.353Z,99208.27734375
2022-09-29T08:08:26.131Z,99213.33203125
2022-09-29T08:09:35.679Z,99216.17578125
2022-09-29T08:10:26.256Z,99214.73828125
2022-09-29T08:11:30.911Z,99209.80078125
2022-09-29T08:12:34.832Z,99215.71875
2022-09-29T08:13:29.223Z,99214.88671875
2022-09-29T08:14:26.489Z,99212.35546875
2022-09-29T08:15:26.213Z,99218.140625
2022-09-29T08:16:26.171Z,99218.21875
2022-09-29T08:17:26.272Z,99220.80078125
2022-09-29T08:18:26.247Z,99219.5234375
2022-09-29T08:19:26.493Z,99223.31640625
2022-09-29T08:20:26.138Z,99225.01171875
2022-09-29T08:21:26.567Z,99222.3203125
2022-09-29T08:22:26.240Z,99226.9140625
2022-09-29T08:23:26.128Z,99228.1171875
2022-09-29T08:24:32.203Z,99224.0859375
2022-09-29T08:25:26.236Z,99224.390625
2022-09-29T08:26:35.344Z,99222.62109375
2022-09-29T08:27:26.229Z,99222.99609375
2022-09-29T08:28:31.109Z,99220.4453125
2022-09-29T08:29:28.482Z,99218.5703125
2022-09-29T08:30:26.124Z,99221.0390625
2022-09-29T08:31:26.214Z,99216.9921875
2022-09-29T08:32:26.211Z,99222.80859375
2022-09-29T08:33:26.272Z,99223.484375
2022-09-29T08:34:26.487Z,99222.234375
2022-09-29T08:35:29.272Z,99228.40625
2022-09-29T08:36:26.509Z,99230.59375
2022-09-29T08:37:26.325Z,99232.8046875
2022-09-29T08:38:26.175Z,99236.9375
2022-09-29T08:39:26.252Z,99235.58203125
2022-09-29T08:40:26.245Z,99235.32421875
2022-09-29T08:41:26.105Z,99232.80078125
2022-09-29T08:42:26.143Z,99236.2421875
2022-09-29T08:43:34.243Z,99236.109375
2022-09-29T08:44:35.365Z,99237.99609375
2022-09-29T08:45:26.241Z,99237.94921875
2022-09-29T08:46:34.201Z,99238.24609375
2022-09-29T08:47:31.757Z,99237.11328125
2022-09-29T08:48:26.142Z,99241.1875
2022-09-29T08:49:31.904Z,99241.203125
2022-09-29T08:50:26.326Z,99243.72265625
2022-09-29T08:51:38.755Z,99243.04296875
2022-09-29T08:52:29.482Z,99244.55078125
2022-09-29T08:53:28.615Z,99244.69921875
2022-09-29T08:54:37.500Z,99245.6875
2022-09-29T08:55:26.345Z,99243.375
2022-09-29T08:56:26.295Z,99246.18359375
2022-09-29T08:57:26.225Z,99249.28515625
2022-09-29T08:58:26.214Z,99247.5703125
2022-09-29T08:59:26.686Z,99247.03125
2022-09-29T09:00:26.196Z,99250.65234375
2022-09-29T09:01:26.234Z,99248.625
2022-09-29T09:02:26.222Z,99253.52734375
2022-09-29T09:03:29.161Z,99251.671875
2022-09-29T09:04:26.498Z,99251.80859375
2022-09-29T09:05:26.197Z,99249.640625
2022-09-29T09:06:26.592Z,99253.48046875
2022-09-29T09:07:26.246Z,99254.3828125
2022-09-29T09:08:26.308Z,99253.078125
2022-09-29T09:09:26.582Z,99251.87890625
2022-09-29T09:10:26.270Z,99252.04296875
2022-09-29T09:11:26.280Z,99251.65234375
2022-09-29T09:12:26.335Z,99251.1171875
2022-09-29T09:13:26.196Z,99246.21875
2022-09-29T09:14:32.243Z,99247.1015625
2022-09-29T09:15:26.191Z,99255.15234375
2022-09-29T09:16:26.291Z,99254.9296875
2022-09-29T09:17:26.194Z,99255.55859375
2022-09-29T09:18:26.257Z,99252.765625
2022-09-29T09:19:26.494Z,99254.38671875
2022-09-29T09:20:26.244Z,99258.359375
2022-09-29T09:21:26.564Z,99257.734375
2022-09-29T09:22:26.309Z,99260.40625
2022-09-29T09:23:26.148Z,99263.6796875
2022-09-29T09:24:26.745Z,99259.73046875
2022-09-29T09:25:29.115Z,99261.09375
2022-09-29T09:26:26.217Z,99262.2734375
2022-09-29T09:27:26.157Z,99261.4140625
2022-09-29T09:28:26.241Z,99262.26171875
2022-09-29T09:29:26.564Z,99260.38671875
2022-09-29T09:30:26.404Z,99261.484375
2022-09-29T09:31:26.170Z,99265.234375
2022-09-29T09:32:26.258Z,99263.17578125
2022-09-29T09:33:30.985Z,99258.39453125
2022-09-29T09:34:40.373Z,99259.99609375
2022-09-29T09:35:26.290Z,99264.0625
2022-09-29T09:36:34.483Z,99264.9609375
2022-09-29T09:37:26.296Z,99259.70703125
2022-09-29T09:38:26.235Z,99259.08984375
2022-09-29T09:39:26.572Z,99260.765625
2022-09-29T09:40:26.228Z,99261.41796875
2022-09-29T09:41:26.121Z,99258.5625
2022-09-29T09:42:26.157Z,99263.9140625
2022-09-29T09:43:26.207Z,99259.99609375
2022-09-29T09:44:26.560Z,99263.64453125
2022-09-29T09:45:26.194Z,99260.91796875
2022-09-29T09:46:27.909Z,99257.57421875
2022-09-29T09:47:29.144Z,99255.24609375
2022-09-29T09:48:30.790Z,99257.48828125
2022-09-29T09:49:26.264Z,99256.2578125
2022-09-29T09:50:26.229Z,99252.3671875
2022-09-29T09:51:26.491Z,99254.11328125
2022-09-29T09:52:26.223Z,99253.1640625
2022-09-29T09:53:26.144Z,99253.76171875
2022-09-29T09:54:26.572Z,99256.0078125
2022-09-29T09:55:26.329Z,99258.921875
2022-09-29T09:56:26.214Z,99253.52734375
2022-09-29T09:57:26.329Z,99250.796875
2022-09-29T09:58:29.220Z,99251.12890625
2022-09-29T09:59:26.486Z,99253.40625
2022-09-29T10:00:26.206Z,99251.796875
2022-09-29T10:01:26.271Z,99254.86328125
2022-09-29T10:02:26.291Z,99253.48046875
2022-09-29T10:03:26.333Z,99255.02734375
2022-09-29T10:04:26.490Z,99253.60546875
2022-09-29T10:05:26.271Z,99256.18359375
2022-09-29T10:06:26.498Z,99254.421875
2022-09-29T10:07:26.198Z,99254.27734375
2022-09-29T10:08:26.162Z,99255.71484375
2022-09-29T10:09:32.258Z,99256.0859375
2022-09-29T10:10:26.200Z,99258.19921875
2022-09-29T10:11:26.108Z,99258.09765625
2022-09-29T10:12:26.121Z,99256.2734375
2022-09-29T10:13:26.142Z,99258.77734375
2022-09-29T10:14:26.643Z,99256.35546875